MV Sea Wolf — WCW6738 — position and weather

sailwx.info

Track history (hours):
 
Tides and Currents Weather Stations Pressure Air Temp Water Temp Dewpoint Dewpoint Depression Visibility Wind Speed Wind Dir Waves Ship Positions

MV Sea Wolf

More information available from US FCC via Universal Licensing System and Coast Guard Vessel Documentation Center.

Last reported at 2014-Jul-31 00:08 UTC. Time now 2014-Jul-31 01:20 UTC.
Position N 40°31' W 074°15'.

Length 66 m; draft 10 m.

MMSI: 367002350.

Date/timePositionNaut miles runAvg speedWind from/ knotsBaromVisibWave heightAir tempDewpointWater temp
2014-Jul-31 00:08N 40°31' W 074°15'0 0.0
2014-Jul-30 23:12N 40°31' W 074°15'0 0.0
2014-Jul-30 22:33N 40°31' W 074°15'0 0.0
2014-Jul-30 21:21N 40°31' W 074°15'0 0.0
2014-Jul-30 20:16N 40°31' W 074°15'0 0.0
2014-Jul-30 18:27N 40°31' W 074°15'0 0.0
2014-Jul-30 17:25N 40°31' W 074°15'0 0.0
2014-Jul-30 16:29N 40°31' W 074°15'0 0.0
2014-Jul-30 15:12N 40°31' W 074°15'0 0.0
2014-Jul-30 14:27N 40°31' W 074°15'0 0.0
2014-Jul-30 13:30N 40°31' W 074°15'0 0.0
2014-Jul-30 12:31N 40°31' W 074°15'7 5.0
2014-Jul-30 11:06N 40°38' W 074°12'3 6.0
2014-Jul-30 10:33N 40°39' W 074°08'4 3.5
2014-Jul-30 09:33N 40°41' W 074°05'0 0.0
2014-Jul-30 08:33N 40°41' W 074°05'0 0.0
2014-Jul-30 07:33N 40°41' W 074°05'0 0.0
2014-Jul-30 06:33N 40°41' W 074°05'0 0.0
2014-Jul-30 05:33N 40°41' W 074°05'0 0.0
2014-Jul-30 04:34N 40°41' W 074°05'0 0.0
2014-Jul-30 03:33N 40°41' W 074°05'0 0.0
2014-Jul-30 02:33N 40°41' W 074°05'0 0.0
2014-Jul-30 01:33N 40°41' W 074°05'0 0.0
2014-Jul-30 00:33N 40°41' W 074°05'0 0.0
2014-Jul-29 23:34N 40°41' W 074°05'0 0.0
2014-Jul-29 22:33N 40°41' W 074°05'0 0.0
2014-Jul-29 21:33N 40°41' W 074°05'0 0.0
2014-Jul-29 20:33N 40°41' W 074°05'0 0.0
2014-Jul-29 19:33N 40°41' W 074°05'0 0.0
2014-Jul-29 18:33N 40°41' W 074°05'0 0.0
2014-Jul-29 17:33N 40°41' W 074°05'0 0.0
2014-Jul-29 16:32N 40°41' W 074°05'0 0.0
2014-Jul-29 15:33N 40°41' W 074°05'0 0.0
2014-Jul-29 14:32N 40°41' W 074°05'0 0.0
2014-Jul-29 13:16N 40°41' W 074°05'0 0.0
2014-Jul-29 12:33N 40°41' W 074°05'0 0.0
2014-Jul-29 11:33N 40°41' W 074°05'0 0.0
2014-Jul-29 10:33N 40°41' W 074°05'0 0.0
2014-Jul-29 09:33N 40°41' W 074°05'0 0.0
2014-Jul-29 08:33N 40°41' W 074°05'0 0.0
2014-Jul-29 07:33N 40°41' W 074°05'0 0.0
2014-Jul-29 06:33N 40°41' W 074°05'0 0.0
2014-Jul-29 05:33N 40°41' W 074°05'0 0.0
2014-Jul-29 04:33N 40°41' W 074°05'0 0.0
2014-Jul-29 03:33N 40°41' W 074°05'0 0.0
2014-Jul-29 02:33N 40°41' W 074°05'0 0.0
2014-Jul-29 01:33N 40°41' W 074°05'0 0.0
2014-Jul-29 00:33N 40°41' W 074°05'0 0.0
2014-Jul-28 23:33N 40°41' W 074°05'0 0.0
2014-Jul-28 22:33N 40°41' W 074°05'0 0.0
2014-Jul-28 21:33N 40°41' W 074°05'0 0.0
2014-Jul-28 20:33N 40°41' W 074°05'0 0.0
2014-Jul-28 16:19N 40°41' W 074°05'0 0.0
2014-Jul-28 15:33N 40°41' W 074°05'0 0.0
2014-Jul-28 14:33N 40°41' W 074°05'0 0.0
2014-Jul-27 07:33N 40°41' W 074°05'0 0.0
2014-Jul-27 06:33N 40°41' W 074°05'0 0.0
2014-Jul-27 05:33N 40°41' W 074°05'0 0.0
2014-Jul-27 04:33N 40°41' W 074°05'0 0.0
2014-Jul-27 03:33N 40°41' W 074°05'0 0.0
2014-Jul-27 00:05N 40°41' W 074°05'0 0.0
2014-Jul-26 23:33N 40°41' W 074°05'0 0.0
2014-Jul-26 22:33N 40°41' W 074°05'0 0.0
2014-Jul-26 21:33N 40°41' W 074°05'0 0.0
2014-Jul-26 20:33N 40°41' W 074°05'0 0.0
2014-Jul-26 19:33N 40°41' W 074°05'0 0.0
2014-Jul-26 18:33N 40°41' W 074°05'0 0.0
2014-Jul-26 17:31N 40°41' W 074°05'2 2.1
2014-Jul-26 16:33N 40°39' W 074°03'3 2.6
2014-Jul-26 15:33N 40°39' W 074°06'2 2.0
2014-Jul-26 14:33N 40°38' W 074°09'0 0.0
2014-Jul-26 13:33N 40°38' W 074°09'0 0.1
2014-Jul-26 12:33N 40°38' W 074°09'0 0.0
2014-Jul-26 11:33N 40°38' W 074°09'0 0.0
2014-Jul-26 10:33N 40°38' W 074°09'0 0.0
2014-Jul-26 09:33N 40°38' W 074°09'0 0.0
2014-Jul-26 08:33N 40°38' W 074°09'0 0.0
2014-Jul-26 07:33N 40°38' W 074°09'0 0.0
2014-Jul-26 06:33N 40°38' W 074°09'0 0.0
2014-Jul-26 05:33N 40°38' W 074°09'0 0.0
2014-Jul-26 04:33N 40°38' W 074°09'0 0.0
2014-Jul-26 03:33N 40°38' W 074°09'0 0.0
2014-Jul-26 02:33N 40°38' W 074°09'0 0.0
2014-Jul-26 01:33N 40°38' W 074°09'0 0.0
2014-Jul-26 00:33N 40°38' W 074°09'0 0.0
2014-Jul-25 23:33N 40°38' W 074°09'4 4.1
2014-Jul-25 22:33N 40°39' W 074°04'7 7.2
2014-Jul-25 21:32N 40°31' W 074°03'4 0.6
2014-Jul-25 15:33N 40°28' W 074°05'0 0.0
2014-Jul-25 12:07N 40°28' W 074°05'0 0.0
2014-Jul-25 11:31N 40°28' W 074°05'0 0.0
2014-Jul-25 10:31N 40°28' W 074°05'0 0.0
2014-Jul-25 09:33N 40°28' W 074°05'0 0.0
2014-Jul-25 05:20N 40°28' W 074°05'0 0.0
2014-Jul-25 04:20N 40°28' W 074°05'2 2.1
2014-Jul-25 03:31N 40°28' W 074°03'2 0.3
2014-Jul-24 21:32N 40°28' W 074°05'3 3.1
2014-Jul-24 20:32N 40°28' W 074°09'0 0.1
2014-Jul-24 19:28N 40°28' W 074°09'0 0.1
2014-Jul-24 18:33N 40°28' W 074°09'0 0.2
2014-Jul-24 17:33N 40°28' W 074°09'0 0.2
2014-Jul-24 16:21N 40°28' W 074°09'0 0.2
2014-Jul-24 15:33N 40°28' W 074°09'2 1.8
2014-Jul-24 14:30N 40°28' W 074°06'1 1.0
2014-Jul-24 13:32N 40°28' W 074°05'0 0.0
2014-Jul-24 12:33N 40°28' W 074°05'0 0.0
2014-Jul-23 19:28N 40°28' W 074°05'1 1.5
2014-Jul-23 18:30N 40°29' W 074°07'1 1.4
2014-Jul-23 17:28N 40°28' W 074°05'0 0.0
2014-Jul-23 16:31N 40°28' W 074°05'2 2.1
2014-Jul-23 15:31N 40°28' W 074°02'2 1.9
2014-Jul-23 14:22N 40°26' W 074°00'0 0.0
2014-Jul-23 13:33N 40°26' W 074°00'0 0.0
2014-Jul-23 12:12N 40°26' W 074°00'3 3.3
2014-Jul-23 11:16N 40°28' W 074°04'1 1.5
2014-Jul-23 10:29N 40°28' W 074°05'0 0.0
2014-Jul-23 09:33N 40°28' W 074°05'0 0.0
2014-Jul-23 08:33N 40°28' W 074°05'0 0.0
2014-Jul-23 07:33N 40°28' W 074°05'0 0.0
2014-Jul-23 06:32N 40°28' W 074°05'0 0.0
2014-Jul-23 05:33N 40°28' W 074°05'0 0.0
2014-Jul-23 04:33N 40°28' W 074°05'0 0.0
2014-Jul-23 03:32N 40°28' W 074°05'0 0.0
2014-Jul-23 02:31N 40°28' W 074°05'0 0.0
2014-Jul-23 01:34N 40°28' W 074°05'0 0.0
2014-Jul-23 00:33N 40°28' W 074°05'0 0.0
2014-Jul-22 23:32N 40°28' W 074°05'0 0.0
2014-Jul-22 22:33N 40°28' W 074°05'0 0.0
2014-Jul-22 21:32N 40°28' W 074°05'0 0.0
2014-Jul-22 20:27N 40°28' W 074°05'0 0.0
2014-Jul-22 19:33N 40°28' W 074°05'0 0.0
2014-Jul-22 18:32N 40°28' W 074°05'0 0.0
2014-Jul-22 17:32N 40°28' W 074°05'1 1.3
2014-Jul-22 16:32N 40°28' W 074°07'0 0.1
2014-Jul-22 15:10N 40°28' W 074°07'0 0.7
2014-Jul-22 14:30N 40°28' W 074°07'2 0.6
2014-Jul-22 11:30N 40°28' W 074°05'0 0.0
2014-Jul-22 10:33N 40°28' W 074°05'0 0.0
2014-Jul-22 09:33N 40°28' W 074°05'0 0.0
2014-Jul-22 08:33N 40°28' W 074°05'0 0.0
2014-Jul-22 07:33N 40°28' W 074°05'0 0.0
2014-Jul-22 06:34N 40°28' W 074°05'0 0.0
2014-Jul-22 05:33N 40°28' W 074°05'0 0.0
2014-Jul-22 04:34N 40°28' W 074°05'0 0.0
2014-Jul-22 03:33N 40°28' W 074°05'0 0.0
2014-Jul-22 02:33N 40°28' W 074°05'0 0.0
2014-Jul-22 01:33N 40°28' W 074°05'0 0.0
2014-Jul-22 00:33N 40°28' W 074°05'0 0.0
2014-Jul-21 23:33N 40°28' W 074°05'0 0.0
2014-Jul-21 22:31N 40°28' W 074°05'0 0.0
2014-Jul-21 21:06N 40°28' W 074°05'0 0.0
2014-Jul-21 20:32N 40°28' W 074°05'0 0.0
2014-Jul-21 20:13N 40°28' W 074°05'0 0.0
2014-Jul-21 19:29N 40°28' W 074°05'0 0.0
2014-Jul-21 18:28N 40°28' W 074°05'0 0.0
2014-Jul-21 17:33N 40°28' W 074°05'0 0.0
2014-Jul-21 16:33N 40°28' W 074°05'4 3.6
2014-Jul-21 15:33N 40°26' W 074°01'1 0.9
2014-Jul-21 14:33N 40°26' W 074°00'  
Track history (hours):
 
Tides and Currents Weather Stations Pressure Air Temp Water Temp Dewpoint Dewpoint Depression Visibility Wind Speed Wind Dir Waves Ship Positions

MV Sea Wolf

More information available from US FCC via Universal Licensing System and Coast Guard Vessel Documentation Center.

Last reported at 2014-Jul-31 00:08 UTC. Time now 2014-Jul-31 01:20 UTC.
Position N 40°31' W 074°15'.

Length 66 m; draft 10 m.

MMSI: 367002350.

Date/timePositionNaut miles runAvg speedWind from/ knotsBaromVisibWave heightAir tempDewpointWater temp
2014-Jul-31 00:08N 40°31' W 074°15'0 0.0
2014-Jul-30 23:12N 40°31' W 074°15'0 0.0
2014-Jul-30 22:33N 40°31' W 074°15'0 0.0
2014-Jul-30 21:21N 40°31' W 074°15'0 0.0
2014-Jul-30 20:16N 40°31' W 074°15'0 0.0
2014-Jul-30 18:27N 40°31' W 074°15'0 0.0
2014-Jul-30 17:25N 40°31' W 074°15'0 0.0
2014-Jul-30 16:29N 40°31' W 074°15'0 0.0
2014-Jul-30 15:12N 40°31' W 074°15'0 0.0
2014-Jul-30 14:27N 40°31' W 074°15'0 0.0
2014-Jul-30 13:30N 40°31' W 074°15'0 0.0
2014-Jul-30 12:31N 40°31' W 074°15'7 5.0
2014-Jul-30 11:06N 40°38' W 074°12'3 6.0
2014-Jul-30 10:33N 40°39' W 074°08'4 3.5
2014-Jul-30 09:33N 40°41' W 074°05'0 0.0
2014-Jul-30 08:33N 40°41' W 074°05'0 0.0
2014-Jul-30 07:33N 40°41' W 074°05'0 0.0
2014-Jul-30 06:33N 40°41' W 074°05'0 0.0
2014-Jul-30 05:33N 40°41' W 074°05'0 0.0
2014-Jul-30 04:34N 40°41' W 074°05'0 0.0
2014-Jul-30 03:33N 40°41' W 074°05'0 0.0
2014-Jul-30 02:33N 40°41' W 074°05'0 0.0
2014-Jul-30 01:33N 40°41' W 074°05'0 0.0
2014-Jul-30 00:33N 40°41' W 074°05'0 0.0
2014-Jul-29 23:34N 40°41' W 074°05'0 0.0
2014-Jul-29 22:33N 40°41' W 074°05'0 0.0
2014-Jul-29 21:33N 40°41' W 074°05'0 0.0
2014-Jul-29 20:33N 40°41' W 074°05'0 0.0
2014-Jul-29 19:33N 40°41' W 074°05'0 0.0
2014-Jul-29 18:33N 40°41' W 074°05'0 0.0
2014-Jul-29 17:33N 40°41' W 074°05'0 0.0
2014-Jul-29 16:32N 40°41' W 074°05'0 0.0
2014-Jul-29 15:33N 40°41' W 074°05'0 0.0
2014-Jul-29 14:32N 40°41' W 074°05'0 0.0
2014-Jul-29 13:16N 40°41' W 074°05'0 0.0
2014-Jul-29 12:33N 40°41' W 074°05'0 0.0
2014-Jul-29 11:33N 40°41' W 074°05'0 0.0
2014-Jul-29 10:33N 40°41' W 074°05'0 0.0
2014-Jul-29 09:33N 40°41' W 074°05'0 0.0
2014-Jul-29 08:33N 40°41' W 074°05'0 0.0
2014-Jul-29 07:33N 40°41' W 074°05'0 0.0
2014-Jul-29 06:33N 40°41' W 074°05'0 0.0
2014-Jul-29 05:33N 40°41' W 074°05'0 0.0
2014-Jul-29 04:33N 40°41' W 074°05'0 0.0
2014-Jul-29 03:33N 40°41' W 074°05'0 0.0
2014-Jul-29 02:33N 40°41' W 074°05'0 0.0
2014-Jul-29 01:33N 40°41' W 074°05'0 0.0
2014-Jul-29 00:33N 40°41' W 074°05'0 0.0
2014-Jul-28 23:33N 40°41' W 074°05'0 0.0
2014-Jul-28 22:33N 40°41' W 074°05'0 0.0
2014-Jul-28 21:33N 40°41' W 074°05'0 0.0
2014-Jul-28 20:33N 40°41' W 074°05'0 0.0
2014-Jul-28 16:19N 40°41' W 074°05'0 0.0
2014-Jul-28 15:33N 40°41' W 074°05'0 0.0
2014-Jul-28 14:33N 40°41' W 074°05'0 0.0
2014-Jul-27 07:33N 40°41' W 074°05'0 0.0
2014-Jul-27 06:33N 40°41' W 074°05'0 0.0
2014-Jul-27 05:33N 40°41' W 074°05'0 0.0
2014-Jul-27 04:33N 40°41' W 074°05'0 0.0
2014-Jul-27 03:33N 40°41' W 074°05'0 0.0
2014-Jul-27 00:05N 40°41' W 074°05'0 0.0
2014-Jul-26 23:33N 40°41' W 074°05'0 0.0
2014-Jul-26 22:33N 40°41' W 074°05'0 0.0
2014-Jul-26 21:33N 40°41' W 074°05'0 0.0
2014-Jul-26 20:33N 40°41' W 074°05'0 0.0
2014-Jul-26 19:33N 40°41' W 074°05'0 0.0
2014-Jul-26 18:33N 40°41' W 074°05'0 0.0
2014-Jul-26 17:31N 40°41' W 074°05'2 2.1
2014-Jul-26 16:33N 40°39' W 074°03'3 2.6
2014-Jul-26 15:33N 40°39' W 074°06'2 2.0
2014-Jul-26 14:33N 40°38' W 074°09'0 0.0
2014-Jul-26 13:33N 40°38' W 074°09'0 0.1
2014-Jul-26 12:33N 40°38' W 074°09'0 0.0
2014-Jul-26 11:33N 40°38' W 074°09'0 0.0
2014-Jul-26 10:33N 40°38' W 074°09'0 0.0
2014-Jul-26 09:33N 40°38' W 074°09'0 0.0
2014-Jul-26 08:33N 40°38' W 074°09'0 0.0
2014-Jul-26 07:33N 40°38' W 074°09'0 0.0
2014-Jul-26 06:33N 40°38' W 074°09'0 0.0
2014-Jul-26 05:33N 40°38' W 074°09'0 0.0
2014-Jul-26 04:33N 40°38' W 074°09'0 0.0
2014-Jul-26 03:33N 40°38' W 074°09'0 0.0
2014-Jul-26 02:33N 40°38' W 074°09'0 0.0
2014-Jul-26 01:33N 40°38' W 074°09'0 0.0
2014-Jul-26 00:33N 40°38' W 074°09'0 0.0
2014-Jul-25 23:33N 40°38' W 074°09'4 4.1
2014-Jul-25 22:33N 40°39' W 074°04'7 7.2
2014-Jul-25 21:32N 40°31' W 074°03'4 0.6
2014-Jul-25 15:33N 40°28' W 074°05'0 0.0
2014-Jul-25 12:07N 40°28' W 074°05'0 0.0
2014-Jul-25 11:31N 40°28' W 074°05'0 0.0
2014-Jul-25 10:31N 40°28' W 074°05'0 0.0
2014-Jul-25 09:33N 40°28' W 074°05'0 0.0
2014-Jul-25 05:20N 40°28' W 074°05'0 0.0
2014-Jul-25 04:20N 40°28' W 074°05'2 2.1
2014-Jul-25 03:31N 40°28' W 074°03'2 0.3
2014-Jul-24 21:32N 40°28' W 074°05'3 3.1
2014-Jul-24 20:32N 40°28' W 074°09'0 0.1
2014-Jul-24 19:28N 40°28' W 074°09'0 0.1
2014-Jul-24 18:33N 40°28' W 074°09'0 0.2
2014-Jul-24 17:33N 40°28' W 074°09'0 0.2
2014-Jul-24 16:21N 40°28' W 074°09'0 0.2
2014-Jul-24 15:33N 40°28' W 074°09'2 1.8
2014-Jul-24 14:30N 40°28' W 074°06'1 1.0
2014-Jul-24 13:32N 40°28' W 074°05'0 0.0
2014-Jul-24 12:33N 40°28' W 074°05'0 0.0
2014-Jul-23 19:28N 40°28' W 074°05'1 1.5
2014-Jul-23 18:30N 40°29' W 074°07'1 1.4
2014-Jul-23 17:28N 40°28' W 074°05'0 0.0
2014-Jul-23 16:31N 40°28' W 074°05'2 2.1
2014-Jul-23 15:31N 40°28' W 074°02'2 1.9
2014-Jul-23 14:22N 40°26' W 074°00'0 0.0
2014-Jul-23 13:33N 40°26' W 074°00'0 0.0
2014-Jul-23 12:12N 40°26' W 074°00'3 3.3
2014-Jul-23 11:16N 40°28' W 074°04'1 1.5
2014-Jul-23 10:29N 40°28' W 074°05'0 0.0
2014-Jul-23 09:33N 40°28' W 074°05'0 0.0
2014-Jul-23 08:33N 40°28' W 074°05'0 0.0
2014-Jul-23 07:33N 40°28' W 074°05'0 0.0
2014-Jul-23 06:32N 40°28' W 074°05'0 0.0
2014-Jul-23 05:33N 40°28' W 074°05'0 0.0
2014-Jul-23 04:33N 40°28' W 074°05'0 0.0
2014-Jul-23 03:32N 40°28' W 074°05'0 0.0
2014-Jul-23 02:31N 40°28' W 074°05'0 0.0
2014-Jul-23 01:34N 40°28' W 074°05'0 0.0
2014-Jul-23 00:33N 40°28' W 074°05'0 0.0
2014-Jul-22 23:32N 40°28' W 074°05'0 0.0
2014-Jul-22 22:33N 40°28' W 074°05'0 0.0
2014-Jul-22 21:32N 40°28' W 074°05'0 0.0
2014-Jul-22 20:27N 40°28' W 074°05'0 0.0
2014-Jul-22 19:33N 40°28' W 074°05'0 0.0
2014-Jul-22 18:32N 40°28' W 074°05'0 0.0
2014-Jul-22 17:32N 40°28' W 074°05'1 1.3
2014-Jul-22 16:32N 40°28' W 074°07'0 0.1
2014-Jul-22 15:10N 40°28' W 074°07'0 0.7
2014-Jul-22 14:30N 40°28' W 074°07'2 0.6
2014-Jul-22 11:30N 40°28' W 074°05'0 0.0
2014-Jul-22 10:33N 40°28' W 074°05'0 0.0
2014-Jul-22 09:33N 40°28' W 074°05'0 0.0
2014-Jul-22 08:33N 40°28' W 074°05'0 0.0
2014-Jul-22 07:33N 40°28' W 074°05'0 0.0
2014-Jul-22 06:34N 40°28' W 074°05'0 0.0
2014-Jul-22 05:33N 40°28' W 074°05'0 0.0
2014-Jul-22 04:34N 40°28' W 074°05'0 0.0
2014-Jul-22 03:33N 40°28' W 074°05'0 0.0
2014-Jul-22 02:33N 40°28' W 074°05'0 0.0
2014-Jul-22 01:33N 40°28' W 074°05'0 0.0
2014-Jul-22 00:33N 40°28' W 074°05'0 0.0
2014-Jul-21 23:33N 40°28' W 074°05'0 0.0
2014-Jul-21 22:31N 40°28' W 074°05'0 0.0
2014-Jul-21 21:06N 40°28' W 074°05'0 0.0
2014-Jul-21 20:32N 40°28' W 074°05'0 0.0
2014-Jul-21 20:13N 40°28' W 074°05'0 0.0
2014-Jul-21 19:29N 40°28' W 074°05'0 0.0
2014-Jul-21 18:28N 40°28' W 074°05'0 0.0
2014-Jul-21 17:33N 40°28' W 074°05'0 0.0
2014-Jul-21 16:33N 40°28' W 074°05'4 3.6
2014-Jul-21 15:33N 40°26' W 074°01'1 0.9
2014-Jul-21 14:33N 40°26' W 074°00'  

Dump ship's entire track history